Flight Track Log - Related Links

Times and Time Zones

All times are in EDT time to prevent confusion due to time zone crossing. See the DAL107 flight status page for this flight to view local times or setup timezone preferences in your user account.


Time Position Orientation Groundspeed Altitude Reporting Facility
EDT Latitude Longitude Course Direction KTS MPH feet Rate Location/Type
Thu 07:59:00 AM 50.0735 8.3810 294° West  Level Estimated
Thu 08:00:00 AM 50.1203 8.2185 294° West  Level Estimated
Thu 08:01:00 AM 50.1669 8.0557 294° West  Level Estimated
Thu 08:02:00 AM 50.2132 7.8925 294° West  Level Estimated
Thu 08:03:00 AM 50.2594 7.7291 294° West  Level Estimated
Thu 08:04:00 AM 50.3053 7.5654 294° West  Level Estimated
Thu 08:05:00 AM 50.3509 7.4013 294° West  Level Estimated
Thu 08:06:00 AM 50.3964 7.2369 293° West  Level Estimated
Thu 08:07:00 AM 50.4416 7.0722 293° West  Level Estimated
Thu 08:08:00 AM 50.4866 6.9072 293° West  Level Estimated
Thu 08:09:00 AM 50.5313 6.7418 293° West  Level Estimated
Thu 08:10:00 AM 50.5758 6.5762 293° West  Level Estimated
Thu 08:11:00 AM 50.6201 6.4103 293° West  Level Estimated
Thu 08:12:00 AM 50.6641 6.2440 293° West  Level Estimated
Thu 08:13:00 AM 50.7079 6.0774 293° West  Level Estimated
Thu 08:14:00 AM 50.7515 5.9105 292° West  Level Estimated
Thu 08:15:00 AM 50.7948 5.7433 292° West  Level Estimated
Thu 08:16:00 AM 50.8379 5.5758 292° West  Level Estimated
Thu 08:17:00 AM 50.8807 5.4080 292° West  Level Estimated
Thu 08:18:00 AM 50.9233 5.2399 292° West  Level Estimated
Thu 08:19:00 AM 50.9657 5.0714 292° West  Level Estimated
Thu 08:20:00 AM 51.0078 4.9027 292° West  Level Estimated
Thu 08:21:00 AM 51.0497 4.7337 292° West  Level Estimated
Thu 08:22:00 AM 51.0913 4.5643 291° West  Level Estimated
Thu 08:23:00 AM 51.1327 4.3947 291° West  Level Estimated
Thu 08:24:00 AM 51.1739 4.2247 291° West  Level Estimated
Thu 08:25:00 AM 51.2147 4.0544 291° West  Level Estimated
Thu 08:26:00 AM 51.2554 3.8839 291° West  Level Estimated
Thu 08:27:00 AM 51.2958 3.7130 291° West  Level Estimated
Thu 08:28:00 AM 51.3359 3.5419 291° West  Level Estimated
Thu 08:29:00 AM 51.3759 3.3704 291° West  Level Estimated
Thu 08:30:00 AM 51.4155 3.1986 290° West  Level Estimated
Thu 08:31:00 AM 51.4549 3.0266 290° West  Level Estimated
Thu 08:32:00 AM 51.4940 2.8542 290° West  Level Estimated
Thu 08:33:00 AM 51.5329 2.6816 290° West  Level Estimated
Thu 08:34:00 AM 51.5716 2.5086 290° West  Level Estimated
Thu 08:35:00 AM 51.6100 2.3354 290° West  Level Estimated
Thu 08:36:00 AM 51.6481 2.1619 290° West  Level Estimated
Thu 08:37:00 AM 51.6860 1.9880 289° West  Level Estimated
Thu 08:38:00 AM 51.7236 1.8139 289° West  Level Estimated
Thu 08:39:00 AM 51.7609 1.6395 289° West  Level Estimated
Thu 08:39:02 AM 51.5812 5.3275 289° West 470 541 30,000  Level FlightAware UK
Thu 08:39:50 AM 51.6000 5.1853 282° West 472 543 30,000  Level FlightAware UK
Thu 08:41:20 AM 51.6296 4.9133 280° West 474 545 30,000  Level FlightAware UK
Thu 08:41:50 AM 51.6379 4.8208 278° West 476 548 30,000  Level FlightAware UK
Thu 08:42:38 AM 51.6523 4.6726 279° West 478 550 30,000  Level FlightAware UK
Thu 08:43:14 AM 51.6618 4.5596 278° West 478 550 30,000  Level FlightAware UK
Thu 08:43:56 AM 51.6737 4.4288 278° West 478 550 30,000  Level FlightAware UK
Thu 08:45:13 AM 51.6941 4.1854 278° West 478 550 30,000  Level FlightAware UK
Thu 08:46:01 AM 51.7060 4.0350 277° West 478 550 30,000  Level FlightAware UK
Thu 08:47:07 AM 51.7231 3.8278 278° West 480 552 30,000  Level FlightAware UK
Thu 08:48:31 AM 51.7439 3.5640 277° West 478 550 30,000  Level FlightAware UK
Thu 08:49:01 AM 51.7507 3.4699 277° West 478 550 30,000  Level FlightAware UK
Thu 08:49:31 AM 51.7581 3.3760 277° West 478 550 30,000  Level FlightAware UK
Thu 08:50:07 AM 51.7666 3.2639 277° West 478 550 30,000  Level FlightAware UK
Thu 08:50:43 AM 51.7744 3.1511 276° West 478 550 30,000  Level FlightAware UK
Thu 08:51:37 AM 51.7624 2.9830 263° West 478 550 30,000  Level FlightAware UK
Thu 08:52:25 AM 51.7565 2.8326 266° West 478 550 30,000  Level FlightAware UK
Thu 08:52:55 AM 51.7538 2.7387 267° West 478 550 30,000  Level FlightAware UK
Thu 08:53:25 AM 51.7514 2.6453 268° West 478 550 30,000  Level FlightAware UK
Thu 08:54:07 AM 51.7454 2.5155 266° West 480 552 30,000  Level FlightAware UK
Thu 08:54:37 AM 51.7401 2.4230 265° West 480 552 30,000  Level FlightAware UK
Thu 08:55:37 AM 51.7300 2.2392 265° West 478 550 30,000  Level FlightAware UK
Thu 08:56:13 AM 51.7240 2.1295 265° West 478 550 30,000  Level FlightAware UK
Thu 08:56:49 AM 51.7182 2.0192 265° West 478 550 30,000  Level FlightAware UK
Thu 08:57:19 AM 51.7129 1.9277 265° West 478 550 30,000  Level FlightAware UK
Thu 08:57:55 AM 51.7067 1.8180 265° West 478 550 30,000  Level FlightAware UK
Thu 08:58:25 AM 51.7014 1.7268 265° West 478 550 30,000  Level FlightAware UK
Thu 08:59:01 AM 51.6951 1.6185 265° West 476 548 30,000  Level FlightAware UK
Thu 08:59:31 AM 51.6898 1.5278 265° West 476 548 30,000  Level FlightAware UK
Thu 09:00:13 AM 51.6820 1.4010 264° West 476 548 30,000  Level FlightAware UK
Thu 09:00:43 AM 51.6763 1.3106 264° West 474 545 30,000  Level FlightAware UK
Thu 09:01:24 AM 51.6684 1.1843 264° West 476 548 30,000  Level FlightAware UK
Thu 09:02:18 AM 51.6579 1.0210 264° West 478 550 30,000  Level FlightAware UK
Thu 09:03:12 AM 51.6472 0.8579 264° West 476 548 30,000  Level FlightAware UK
Thu 09:03:48 AM 51.6401 0.7499 264° West 476 548 30,000  Level FlightAware UK
Thu 09:04:30 AM 51.6316 0.6233 264° West 478 550 30,000  Level FlightAware UK
Thu 09:05:18 AM 51.6216 0.4789 264° West 476 548 30,000  Level FlightAware UK
Thu 09:06:36 AM 51.6053 0.2452 264° West 478 550 30,000  Level FlightAware UK
Thu 09:07:24 AM 51.5950 0.1021 263° West 476 548 30,000  Level FlightAware UK
Thu 09:07:54 AM 51.5884 0.0124 263° West 476 548 30,000  Level FlightAware UK
Thu 09:08:30 AM 51.5805 -0.0946 263° West 474 545 30,000  Level FlightAware UK
Thu 09:09:06 AM 51.5726 -0.2024 263° West 474 545 30,000  Level FlightAware UK
Thu 09:09:36 AM 51.5659 -0.2919 263° West 476 548 30,000  Level FlightAware UK
Thu 09:10:23 AM 51.5549 -0.4355 263° West 476 548 30,000  Level FlightAware UK
Thu 09:10:53 AM 51.5478 -0.5251 263° West 478 550 30,000  Level FlightAware UK
Thu 09:11:29 AM 51.5417 -0.6332 265° West 478 550 30,000  Level FlightAware UK
Thu 09:12:17 AM 51.5598 -0.7786 281° West 478 550 30,000  Level FlightAware UK
Thu 09:13:35 AM 51.5797 -1.0151 278° West 476 548 30,000  Level FlightAware UK
Thu 09:14:41 AM 51.5944 -1.2158 277° West 476 548 30,000  Level FlightAware UK
Thu 09:15:41 AM 51.6125 -1.3976 279° West 476 548 30,000  Level FlightAware UK
Thu 09:16:41 AM 51.6302 -1.5798 279° West 478 550 30,000  Level FlightAware UK
Thu 09:17:16 AM 51.6405 -1.6890 279° West 478 550 30,000  Level FlightAware UK
Thu 09:17:58 AM 51.6523 -1.8170 278° West 476 548 30,000  Level FlightAware UK
Thu 09:18:46 AM 51.6656 -1.9624 278° West 478 550 30,000  Level FlightAware UK
Thu 09:19:28 AM 51.6772 -2.0902 278° West 478 550 30,000  Level FlightAware UK
Thu 09:20:10 AM 51.6889 -2.2180 278° West 476 548 30,000  Level FlightAware UK
Thu 09:20:52 AM 51.7001 -2.3457 278° West 476 548 30,000  Level FlightAware UK
Thu 09:21:52 AM 51.7159 -2.5265 278° West 476 548 30,000  Level FlightAware UK
Thu 09:22:22 AM 51.7237 -2.6173 278° West 474 545 30,000  Level FlightAware UK
Thu 09:22:58 AM 51.7331 -2.7257 278° West 474 545 30,000  Level FlightAware UK
Thu 09:23:40 AM 51.7436 -2.8531 278° West 474 545 30,000  Level FlightAware UK
Thu 09:24:10 AM 51.7512 -2.9444 278° West 476 548 30,000  Level FlightAware UK
Thu 09:24:51 AM 51.7618 -3.0719 278° West 474 545 30,000  Level FlightAware UK
Thu 09:25:39 AM 51.7737 -3.2182 278° West 476 548 30,000  Level FlightAware UK
Thu 09:26:15 AM 51.7897 -3.3279 283° West 474 545 30,000  Level FlightAware UK
Thu 09:27:39 AM 51.8495 -3.5783 291° West 476 548 30,000  Level FlightAware UK
Thu 09:28:21 AM 51.8808 -3.7037 292° West 476 548 30,000  Level FlightAware UK
Thu 09:28:51 AM 51.9027 -3.7937 292° West 474 545 30,000  Level FlightAware UK
Thu 09:30:09 AM 51.9588 -4.0281 291° West 476 548 30,000  Level FlightAware UK
Thu 09:30:45 AM 51.9846 -4.1368 291° West 478 550 30,000  Level FlightAware UK
Thu 09:31:33 AM 52.0093 -4.2849 285° West 474 545 30,000  Level FlightAware UK
Thu 09:32:15 AM 52.0312 -4.4146 285° West 476 548 30,000  Level FlightAware UK
Thu 09:32:45 AM 52.0475 -4.5073 286° West 476 548 30,000  Level FlightAware UK
Thu 09:33:21 AM 52.0675 -4.6187 286° West 476 548 30,000  Level FlightAware UK
Thu 09:33:51 AM 52.0907 -4.7105 292° West 478 550 30,000  Level FlightAware UK
Thu 09:34:27 AM 52.1169 -4.8205 291° West 476 548 30,000  Level FlightAware UK
Thu 09:35:03 AM 52.1419 -4.9306 290° West 478 550 30,000  Level FlightAware UK
Thu 09:36:33 AM 52.2059 -5.2062 291° West 474 545 30,000  Level FlightAware UK
Thu 09:37:03 AM 52.2274 -5.2977 291° West 472 543 30,000  Level FlightAware UK
Thu 09:37:33 AM 52.2485 -5.3894 291° West 472 543 30,000  Level FlightAware UK
Thu 09:38:03 AM 52.2695 -5.4811 291° West 470 541 30,000  Level FlightAware UK
Thu 09:38:39 AM 52.2948 -5.5914 291° West 470 541 30,000 545 Level FlightAware UK
Thu 09:39:09 AM 52.3158 -5.6835 291° West 472 543 30,600 1,500 Climbing FlightAware UK
Thu 09:39:39 AM 52.3369 -5.7758 291° West 468 539 31,500 1,700 Climbing FlightAware UK
Thu 09:40:09 AM 52.3580 -5.8676 291° West 468 539 32,300 1,600 Climbing FlightAware UK
Thu 09:40:39 AM 52.3785 -5.9593 290° West 464 534 33,100 1,273 Climbing FlightAware UK
Thu 09:41:15 AM 52.4031 -6.0691 290° West 468 539 33,700 1,091 Climbing FlightAware UK
Thu 09:41:45 AM 52.4239 -6.1619 290° West 466 536 34,300 909 Climbing FlightAware UK
Thu 09:42:21 AM 52.4490 -6.2745 290° West 472 543 34,700 636 Climbing FlightAware UK
Thu 09:42:51 AM 52.4702 -6.3696 290° West 472 543 35,000 300 Climbing FlightAware UK
Thu 09:43:21 AM 52.4913 -6.4649 290° West 474 545 35,000  Level FlightAware UK
Thu 09:43:51 AM 52.5120 -6.5601 290° West 472 543 35,000  Level FlightAware UK
Thu 09:44:21 AM 52.5327 -6.6552 290° West 472 543 35,000  Level FlightAware UK
Thu 09:44:51 AM 52.5535 -6.7506 290° West 472 543 35,000  Level FlightAware UK
Thu 09:45:21 AM 52.5742 -6.8461 290° West 474 545 35,000  Level FlightAware UK
Thu 09:45:51 AM 52.5948 -6.9420 290° West 472 543 35,000  Level FlightAware UK
Thu 09:46:21 AM 52.6153 -7.0382 289° West 472 543 35,000  Level FlightAware UK
Thu 09:46:51 AM 52.6360 -7.1344 289° West 470 541 35,000  Level FlightAware UK
Thu 09:47:26 AM 52.6606 -7.2495 289° West 470 541 35,000  Level FlightAware UK
Thu 09:47:56 AM 52.6808 -7.3464 289° West 470 541 35,000  Level FlightAware UK
Thu 09:48:26 AM 52.7012 -7.4433 289° West 472 543 35,000  Level FlightAware UK
Thu 09:48:56 AM 52.7215 -7.5407 289° West 472 543 35,000  Level FlightAware UK
Thu 09:49:26 AM 52.7418 -7.6383 289° West 470 541 35,000  Level FlightAware UK
Thu 09:49:56 AM 52.7621 -7.7363 289° West 470 541 35,000  Level FlightAware UK
Thu 09:50:26 AM 52.7824 -7.8347 289° West 474 545 35,000  Level FlightAware UK
Thu 09:50:56 AM 52.8027 -7.9333 289° West 474 545 35,000  Level FlightAware UK
Thu 09:51:26 AM 52.8229 -8.0322 289° West 474 545 35,000  Level FlightAware UK
Thu 09:51:56 AM 52.8431 -8.1311 289° West 472 543 35,000  Level FlightAware UK
Thu 09:52:26 AM 52.8629 -8.2301 288° West 472 543 35,000  Level FlightAware UK
Thu 09:52:56 AM 52.8828 -8.3294 288° West 470 541 35,000  Level FlightAware UK
Thu 09:53:32 AM 52.9066 -8.4481 288° West 466 536 35,000  Level FlightAware UK
Thu 09:54:02 AM 52.9264 -8.5481 288° West 470 541 35,000  Level FlightAware UK
Thu 09:54:32 AM 52.9461 -8.6485 288° West 472 543 35,000  Level FlightAware UK
Thu 09:55:02 AM 52.9661 -8.7492 288° West 470 541 35,000  Level FlightAware UK
Thu 09:55:32 AM 52.9858 -8.8504 288° West 472 543 35,000  Level FlightAware UK
Thu 09:56:02 AM 53.0057 -8.9516 288° West 472 543 35,000  Level FlightAware UK
Thu 09:58:00 AM 53.0475 -9.3126 281° West  Level Estimated
Thu 10:05:00 AM 53.1875 -10.6029 281° West  Level Estimated
Thu 10:06:00 AM 53.2064 -10.7879 280° West  Level Estimated
Thu 10:07:00 AM 53.2249 -10.9730 280° West  Level Estimated
Thu 10:08:00 AM 53.2432 -11.1584 279° West  Level Estimated
Thu 10:09:00 AM 53.2612 -11.3438 279° West  Level Estimated
Thu 10:10:00 AM 53.2789 -11.5295 279° West  Level Estimated
Thu 10:11:00 AM 53.2963 -11.7153 279° West  Level Estimated
Thu 10:12:00 AM 53.3135 -11.9012 279° West  Level Estimated
Thu 10:13:00 AM 53.3303 -12.0873 279° West  Level Estimated
Thu 10:14:00 AM 53.3469 -12.2735 279° West  Level Estimated
Thu 10:15:00 AM 53.3631 -12.4599 278° West  Level Estimated
Thu 10:16:00 AM 53.3791 -12.6464 278° West  Level Estimated
Thu 10:17:00 AM 53.3948 -12.8330 278° West  Level Estimated
Thu 10:18:00 AM 53.4102 -13.0198 278° West  Level Estimated
Thu 10:19:00 AM 53.4253 -13.2067 278° West  Level Estimated
Thu 10:20:00 AM 53.4401 -13.3938 278° West  Level Estimated
Thu 10:21:00 AM 53.4546 -13.5810 277° West  Level Estimated
Thu 10:22:00 AM 53.4688 -13.7683 277° West  Level Estimated
Thu 10:23:00 AM 53.4827 -13.9557 277° West  Level Estimated
Thu 10:24:00 AM 53.4964 -14.1433 277° West  Level Estimated
Thu 10:25:00 AM 53.5097 -14.3309 277° West  Level Estimated
Thu 10:26:00 AM 53.5228 -14.5199 277° West  Level Estimated
Thu 10:27:00 AM 53.5356 -14.7089 277° West  Level Estimated
Thu 10:28:00 AM 53.5482 -14.8981 276° West  Level Estimated
Thu 10:29:00 AM 53.5604 -15.0874 276° West  Level Estimated
Thu 10:30:00 AM 53.5723 -15.2768 276° West  Level Estimated
Thu 10:31:00 AM 53.5840 -15.4663 276° West  Level Estimated
Thu 10:32:00 AM 53.5953 -15.6558 276° West  Level Estimated
Thu 10:33:00 AM 53.6063 -15.8455 276° West  Level Estimated
Thu 10:34:00 AM 53.6171 -16.0353 276° West  Level Estimated
Thu 10:35:00 AM 53.6492 -16.2277 286° West  Level FlightAware Approximate
Thu 10:36:00 AM 53.6810 -16.4203 286° West  Level FlightAware Approximate
Thu 10:37:00 AM 53.7124 -16.6132 285° West  Level FlightAware Approximate
Thu 10:38:00 AM 53.7436 -16.8064 285° West  Level FlightAware Approximate
Thu 10:39:00 AM 53.7745 -16.9999 285° West  Level FlightAware Approximate
Thu 10:40:00 AM 53.8050 -17.1937 285° West  Level FlightAware Approximate
Thu 10:41:00 AM 53.8352 -17.3878 285° West  Level FlightAware Approximate
Thu 10:42:00 AM 53.8435 -17.5881 277° West  Level Estimated
Thu 10:43:00 AM 53.8583 -17.7873 277° West  Level FlightAware Approximate
Thu 10:44:00 AM 53.8728 -17.9867 277° West  Level FlightAware Approximate
Thu 10:45:00 AM 53.8870 -18.1863 277° West  Level FlightAware Approximate
Thu 10:46:00 AM 53.9008 -18.3860 277° West  Level FlightAware Approximate
Thu 10:47:00 AM 53.9143 -18.5858 277° West  Level FlightAware Approximate
Thu 10:47:00 AM 54.0000 -20.0000 256° West 475 547 35,000  Level ETMS Enhanced Traffic Management System
Thu 10:47:00 AM 54.0000 -20.0000 256° West 475 547 35,000  Level ETMS Enhanced Traffic Management System
Thu 10:48:00 AM 53.9274 -18.7857 276° West  Level FlightAware Approximate
Thu 10:49:00 AM 53.9402 -18.9858 276° West  Level FlightAware Approximate
Thu 10:50:00 AM 53.9527 -19.1860 276° West  Level FlightAware Approximate
Thu 10:51:00 AM 53.9649 -19.3863 276° West  Level FlightAware Approximate
Thu 10:52:00 AM 53.9767 -19.5867 276° West  Level FlightAware Approximate
Thu 10:53:00 AM 53.7616 -21.5143 254° West 475 547 35,000  Level FlightAware Transoceanic
Thu 10:54:00 AM 53.7260 -21.7292 254° West 475 547 35,000  Level FlightAware Transoceanic
Thu 10:55:00 AM 53.6900 -21.9437 254° West 475 547 35,000  Level FlightAware Transoceanic
Thu 10:56:00 AM 53.6536 -22.1579 254° West 475 547 35,000  Level FlightAware Transoceanic
Thu 10:57:00 AM 53.6169 -22.3717 254° West 475 547 35,000  Level FlightAware Transoceanic
Thu 10:58:00 AM 53.5797 -22.5851 254° West 475 547 35,000  Level FlightAware Transoceanic
Thu 10:59:00 AM 53.5422 -22.7982 253° West 475 547 35,000  Level FlightAware Transoceanic
Thu 11:00:00 AM 53.5043 -23.0108 253° West 475 547 35,000  Level FlightAware Transoceanic
Thu 11:01:00 AM 53.4660 -23.2231 253° West 475 547 35,000  Level FlightAware Transoceanic
Thu 11:02:00 AM 53.4274 -23.4350 253° West 475 547 35,000  Level FlightAware Transoceanic
Thu 11:03:00 AM 53.3884 -23.6465 253° West 475 547 35,000  Level FlightAware Transoceanic
Thu 11:04:00 AM 53.3490 -23.8577 253° West 475 547 35,000  Level FlightAware Transoceanic
Thu 11:05:00 AM 53.3092 -24.0684 252° West 475 547 35,000  Level FlightAware Transoceanic
Thu 11:06:00 AM 53.2691 -24.2787 252° West 475 547 35,000  Level FlightAware Transoceanic
Thu 11:07:00 AM 53.2286 -24.4887 252° West 475 547 35,000  Level FlightAware Transoceanic
Thu 11:08:00 AM 53.1877 -24.6982 252° West 475 547 35,000  Level FlightAware Transoceanic
Thu 11:09:00 AM 53.1465 -24.9074 252° West 475 547 35,000  Level FlightAware Transoceanic
Thu 11:10:00 AM 53.1049 -25.1161 252° West 475 547 35,000  Level FlightAware Transoceanic
Thu 11:11:00 AM 53.0629 -25.3244 251° West 475 547 35,000  Level FlightAware Transoceanic
Thu 11:12:00 AM 53.0206 -25.5324 251° West 475 547 35,000  Level FlightAware Transoceanic
Thu 11:13:00 AM 52.9779 -25.7399 251° West 475 547 35,000  Level FlightAware Transoceanic
Thu 11:14:00 AM 52.9348 -25.9470 251° West 475 547 35,000  Level FlightAware Transoceanic
Thu 11:15:00 AM 52.8914 -26.1537 251° West 475 547 35,000  Level FlightAware Transoceanic
Thu 11:16:00 AM 52.8476 -26.3600 251° West 475 547 35,000  Level FlightAware Transoceanic
Thu 11:17:00 AM 52.8035 -26.5658 250° West 475 547 35,000  Level FlightAware Transoceanic
Thu 11:18:00 AM 52.7590 -26.7713 250° West 475 547 35,000  Level FlightAware Transoceanic
Thu 11:19:00 AM 52.7142 -26.9763 250° West 475 547 35,000  Level FlightAware Transoceanic
Thu 11:20:00 AM 52.6690 -27.1809 250° West 475 547 35,000  Level FlightAware Transoceanic
Thu 11:21:00 AM 52.6235 -27.3851 250° West 475 547 35,000  Level FlightAware Transoceanic
Thu 11:22:00 AM 52.5776 -27.5888 250° West 475 547 35,000  Level FlightAware Transoceanic
Thu 11:23:00 AM 52.5313 -27.7921 249° West 475 547 35,000  Level FlightAware Transoceanic
Thu 11:24:00 AM 52.4847 -27.9950 249° West 475 547 35,000  Level FlightAware Transoceanic
Thu 11:25:00 AM 52.4378 -28.1975 249° West 475 547 35,000  Level FlightAware Transoceanic
Thu 11:26:00 AM 52.3905 -28.3995 249° West 475 547 35,000  Level FlightAware Transoceanic
Thu 11:27:00 AM 52.3429 -28.6011 249° West 475 547 35,000  Level FlightAware Transoceanic
Thu 11:28:00 AM 52.2949 -28.8023 249° West 475 547 35,000  Level FlightAware Transoceanic
Thu 11:29:00 AM 52.2466 -29.0030 248° West 475 547 35,000  Level FlightAware Transoceanic
Thu 11:30:00 AM 52.1980 -29.2033 248° West 475 547 35,000  Level FlightAware Transoceanic
Thu 11:31:00 AM 52.1490 -29.4031 248° West 475 547 35,000  Level FlightAware Transoceanic
Thu 11:32:00 AM 52.0997 -29.6025 248° West 475 547 35,000  Level FlightAware Transoceanic
Thu 11:33:00 AM 52.0500 -29.8015 248° West 475 547 35,000  Level FlightAware Transoceanic
Thu 11:34:00 AM 52.0051 -29.9797 248° West  Level FlightAware Approximate
Thu 11:35:00 AM 51.9600 -30.1576 248° West  Level FlightAware Approximate
Thu 11:36:00 AM 51.9666 -30.1383 249° West  Level FlightAware Approximate
Thu 11:37:00 AM 51.9236 -30.3155 249° West  Level FlightAware Approximate
Thu 11:38:00 AM 51.8803 -30.4923 248° West  Level FlightAware Approximate
Thu 11:39:00 AM 51.8367 -30.6689 248° West  Level FlightAware Approximate
Thu 11:40:00 AM 51.7929 -30.8450 248° West  Level FlightAware Approximate
Thu 11:41:00 AM 51.7488 -31.0209 248° West  Level FlightAware Approximate
Thu 11:42:00 AM 51.7044 -31.1964 248° West  Level FlightAware Approximate
Thu 11:43:00 AM 51.6598 -31.3715 248° West  Level FlightAware Approximate
Thu 11:44:00 AM 51.6149 -31.5463 248° West  Level FlightAware Approximate
Thu 11:45:00 AM 51.5698 -31.7207 247° West  Level FlightAware Approximate
Thu 11:46:00 AM 51.5244 -31.8948 247° West  Level FlightAware Approximate
Thu 11:47:00 AM 51.4787 -32.0686 247° West  Level FlightAware Approximate
Thu 11:48:00 AM 51.4328 -32.2420 247° West  Level FlightAware Approximate
Thu 11:49:00 AM 51.3867 -32.4151 247° West  Level FlightAware Approximate
Thu 11:50:00 AM 51.3402 -32.5878 247° West  Level FlightAware Approximate
Thu 11:51:00 AM 51.2936 -32.7601 247° West  Level FlightAware Approximate
Thu 11:52:00 AM 51.2466 -32.9322 247° West  Level FlightAware Approximate
Thu 11:53:00 AM 51.1995 -33.1038 246° West  Level FlightAware Approximate
Thu 11:54:00 AM 51.1520 -33.2751 246° West  Level FlightAware Approximate
Thu 11:55:00 AM 51.1043 -33.4460 246° West  Level FlightAware Approximate
Thu 11:56:00 AM 51.0564 -33.6166 246° West  Level FlightAware Approximate
Thu 11:57:00 AM 51.0082 -33.7869 246° West  Level FlightAware Approximate
Thu 11:58:00 AM 50.9598 -33.9568 246° West  Level FlightAware Approximate
Thu 11:59:00 AM 50.9111 -34.1263 246° West  Level FlightAware Approximate
Thu 12:00:00 PM 50.8622 -34.2955 245° Southwest  Level FlightAware Approximate
Thu 12:01:00 PM 50.8131 -34.4643 245° Southwest  Level FlightAware Approximate
Thu 12:02:00 PM 50.7637 -34.6328 245° Southwest  Level FlightAware Approximate
Thu 12:03:00 PM 50.7140 -34.8009 245° Southwest  Level FlightAware Approximate
Thu 12:04:00 PM 50.6642 -34.9687 245° Southwest  Level FlightAware Approximate
Thu 12:05:00 PM 50.6140 -35.1361 245° Southwest  Level FlightAware Approximate
Thu 12:06:00 PM 50.5637 -35.3031 245° Southwest  Level FlightAware Approximate
Thu 12:07:00 PM 50.5131 -35.4698 245° Southwest  Level FlightAware Approximate
Thu 12:08:00 PM 50.4622 -35.6361 244° Southwest  Level FlightAware Approximate
Thu 12:09:00 PM 50.4112 -35.8021 244° Southwest  Level FlightAware Approximate
Thu 12:10:00 PM 50.3598 -35.9677 244° Southwest  Level FlightAware Approximate
Thu 12:11:00 PM 50.3083 -36.1329 244° Southwest  Level FlightAware Approximate
Thu 12:12:00 PM 50.2565 -36.2978 244° Southwest  Level FlightAware Approximate
Thu 12:13:00 PM 50.2045 -36.4623 244° Southwest  Level FlightAware Approximate
Thu 12:14:00 PM 50.1523 -36.6265 244° Southwest  Level FlightAware Approximate
Thu 12:15:00 PM 50.0998 -36.7903 244° Southwest  Level FlightAware Approximate
Thu 12:16:00 PM 50.0471 -36.9538 243° Southwest  Level FlightAware Approximate
Thu 12:17:00 PM 49.9941 -37.1169 243° Southwest  Level FlightAware Approximate
Thu 12:18:00 PM 49.9410 -37.2796 243° Southwest  Level FlightAware Approximate
Thu 12:19:00 PM 49.8876 -37.4420 243° Southwest  Level FlightAware Approximate
Thu 12:20:00 PM 49.8340 -37.6040 243° Southwest  Level FlightAware Approximate
Thu 12:21:00 PM 49.7801 -37.7657 243° Southwest  Level FlightAware Approximate
Thu 12:22:00 PM 49.7261 -37.9270 243° Southwest  Level FlightAware Approximate
Thu 12:23:00 PM 49.6718 -38.0879 243° Southwest  Level FlightAware Approximate
Thu 12:24:00 PM 49.6173 -38.2485 242° Southwest  Level FlightAware Approximate
Thu 12:25:00 PM 49.5625 -38.4087 242° Southwest  Level FlightAware Approximate
Thu 12:26:00 PM 49.5076 -38.5686 242° Southwest  Level FlightAware Approximate
Thu 12:27:00 PM 49.4524 -38.7281 242° Southwest  Level FlightAware Approximate
Thu 12:28:00 PM 49.3970 -38.8872 242° Southwest  Level FlightAware Approximate
Thu 12:29:00 PM 49.3414 -39.0460 242° Southwest  Level FlightAware Approximate
Thu 12:30:00 PM 49.2856 -39.2044 242° Southwest  Level FlightAware Approximate
Thu 12:31:00 PM 49.2295 -39.3625 242° Southwest  Level FlightAware Approximate
Thu 12:32:00 PM 49.1733 -39.5202 241° Southwest  Level FlightAware Approximate
Thu 12:33:00 PM 49.1168 -39.6776 241° Southwest  Level FlightAware Approximate
Thu 12:34:00 PM 49.0601 -39.8345 241° Southwest  Level FlightAware Approximate
Thu 12:35:00 PM 49.0032 -39.9912 241° Southwest  Level FlightAware Approximate
Thu 12:36:00 PM 48.9606 -40.1577 249° West  Level FlightAware Approximate
Thu 12:37:00 PM 48.9185 -40.3246 249° West  Level FlightAware Approximate
Thu 12:38:00 PM 48.8763 -40.4912 249° West  Level FlightAware Approximate
Thu 12:39:00 PM 48.8338 -40.6575 249° West  Level FlightAware Approximate
Thu 12:40:00 PM 48.7910 -40.8236 249° West  Level FlightAware Approximate
Thu 12:41:00 PM 48.7481 -40.9893 249° West  Level FlightAware Approximate
Thu 12:42:00 PM 48.7048 -41.1548 248° West  Level FlightAware Approximate
Thu 12:43:00 PM 48.6614 -41.3200 248° West  Level FlightAware Approximate
Thu 12:44:00 PM 48.6180 -41.4851 248° West  Level FlightAware Approximate
Thu 12:45:00 PM 48.5744 -41.6499 248° West  Level FlightAware Approximate
Thu 12:46:00 PM 48.5305 -41.8144 248° West  Level FlightAware Approximate
Thu 12:47:00 PM 48.4864 -41.9786 248° West  Level FlightAware Approximate
Thu 12:48:00 PM 48.4420 -42.1426 248° West  Level FlightAware Approximate
Thu 12:49:00 PM 48.3975 -42.3062 248° West  Level FlightAware Approximate
Thu 12:50:00 PM 48.3526 -42.4696 248° West  Level FlightAware Approximate
Thu 12:51:00 PM 48.3079 -42.6328 248° West  Level FlightAware Approximate
Thu 12:52:00 PM 48.2638 -42.7964 248° West  Level FlightAware Approximate
Thu 12:53:00 PM 48.2195 -42.9596 248° West  Level FlightAware Approximate
Thu 12:54:00 PM 48.1750 -43.1226 248° West  Level FlightAware Approximate
Thu 12:55:00 PM 48.1302 -43.2853 248° West  Level FlightAware Approximate
Thu 12:56:00 PM 48.0853 -43.4477 248° West  Level FlightAware Approximate
Thu 12:57:00 PM 48.0401 -43.6098 247° West  Level FlightAware Approximate
Thu 12:58:00 PM 47.9946 -43.7717 247° West  Level FlightAware Approximate
Thu 12:59:00 PM 47.9489 -43.9332 247° West  Level FlightAware Approximate
Thu 01:00:00 PM 47.9030 -44.0945 247° West  Level FlightAware Approximate
Thu 01:01:00 PM 47.8569 -44.2555 247° West  Level FlightAware Approximate
Thu 01:02:00 PM 47.8106 -44.4161 247° West  Level FlightAware Approximate
Thu 01:03:00 PM 47.7640 -44.5765 247° West  Level FlightAware Approximate
Thu 01:04:00 PM 47.7172 -44.7367 247° West  Level FlightAware Approximate
Thu 01:05:00 PM 47.6702 -44.8965 246° West  Level FlightAware Approximate
Thu 01:06:00 PM 47.6230 -45.0560 246° West  Level FlightAware Approximate
Thu 01:07:00 PM 47.5752 -45.2150 246° West  Level FlightAware Approximate
Thu 01:08:00 PM 47.5268 -45.3735 246° West  Level FlightAware Approximate
Thu 01:09:00 PM 47.4782 -45.5317 246° West  Level FlightAware Approximate
Thu 01:10:00 PM 47.4294 -45.6896 245° Southwest  Level FlightAware Approximate
Thu 01:11:00 PM 47.3804 -45.8473 245° Southwest  Level FlightAware Approximate
Thu 01:12:00 PM 47.3312 -46.0046 245° Southwest  Level FlightAware Approximate
Thu 01:13:00 PM 47.2817 -46.1616 245° Southwest  Level FlightAware Approximate
Thu 01:14:00 PM 47.2320 -46.3184 245° Southwest  Level FlightAware Approximate
Thu 01:15:00 PM 47.1823 -46.4749 245° Southwest  Level FlightAware Approximate
Thu 01:16:00 PM 47.1325 -46.6312 245° Southwest  Level FlightAware Approximate
Thu 01:17:00 PM 47.0824 -46.7873 245° Southwest  Level FlightAware Approximate
Thu 01:18:00 PM 47.0322 -46.9430 245° Southwest  Level FlightAware Approximate
Thu 01:19:00 PM 46.9817 -47.0984 245° Southwest  Level FlightAware Approximate
Thu 01:20:00 PM 46.9310 -47.2536 244° Southwest  Level FlightAware Approximate
Thu 01:21:00 PM 46.8801 -47.4084 244° Southwest  Level FlightAware Approximate
Thu 01:22:00 PM 46.8290 -47.5630 244° Southwest  Level FlightAware Approximate
Thu 01:23:00 PM 46.7781 -47.7176 244° Southwest  Level FlightAware Approximate
Thu 01:24:00 PM 46.7272 -47.8720 244° Southwest  Level FlightAware Approximate
Thu 01:25:00 PM 46.6761 -48.0261 244° Southwest  Level FlightAware Approximate
Thu 01:26:00 PM 46.6247 -48.1799 244° Southwest  Level FlightAware Approximate
Thu 01:27:00 PM 46.5732 -48.3334 244° Southwest  Level FlightAware Approximate
Thu 01:28:00 PM 46.5215 -48.4866 244° Southwest  Level FlightAware Approximate
Thu 01:29:00 PM 46.4695 -48.6396 244° Southwest  Level FlightAware Approximate
Thu 01:30:00 PM 46.4174 -48.7922 244° Southwest  Level FlightAware Approximate
Thu 01:31:00 PM 46.3650 -48.9446 244° Southwest  Level FlightAware Approximate
Thu 01:32:00 PM 46.3125 -49.0967 243° Southwest  Level FlightAware Approximate
Thu 01:33:00 PM 46.2597 -49.2484 243° Southwest  Level FlightAware Approximate
Thu 01:33:21 PM 46.0500 -49.7833 261° West 420 483 35,000  Level Gander Center
Thu 01:34:00 PM 46.2068 -49.3999 243° Southwest  Level FlightAware Approximate
Thu 01:34:21 PM 45.9667 -49.9500 234° Southwest 430 495 35,000  Level Gander Center
Thu 01:35:00 PM 46.1536 -49.5511 243° Southwest  Level FlightAware Approximate
Thu 01:35:21 PM 45.9500 -50.1000 261° West 430 495 35,000  Level Gander Center
Thu 01:36:00 PM 46.1355 -49.7201 261° West  Level Estimated
Thu 01:36:21 PM 45.9167 -50.2667 254° West 440 506 35,000  Level Gander Center
Thu 01:37:00 PM 46.1171 -49.8891 261° West  Level Estimated
Thu 01:37:21 PM 45.8833 -50.4500 255° West 440 506 35,000  Level Gander Center
Thu 01:38:00 PM 46.0985 -50.0579 261° West  Level Estimated
Thu 01:38:21 PM 45.8667 -50.6167 262° West 440 506 35,000  Level Gander Center
Thu 01:39:21 PM 45.8333 -50.8000 255° West 440 506 35,000  Level Gander Center
Thu 01:40:21 PM 45.8167 -50.9667 262° West 440 506 35,000  Level Gander Center
Thu 01:41:21 PM 45.7833 -51.1500 255° West 440 506 35,000  Level Gander Center
Thu 01:42:21 PM 45.7500 -51.3000 252° West 440 506 35,000  Level Gander Center
Thu 01:43:21 PM 45.7333 -51.4833 263° West 440 506 35,000  Level Gander Center
Thu 01:44:21 PM 45.7000 -51.6500 254° West 440 506 35,000  Level Gander Center
Thu 01:45:21 PM 45.6833 -51.8167 262° West 440 506 35,000  Level Gander Center
Thu 01:46:21 PM 45.6500 -51.9833 254° West 440 506 35,000  Level Gander Center
Thu 01:46:54 PM 45.6167 -52.0833 245° Southwest 440 506 35,000  Level Gander Center
Thu 01:47:27 PM 45.6167 -52.1667 270° West 440 506 35,000  Level Moncton Center
Thu 01:48:28 PM 45.6000 -52.3500 263° West 440 506 35,000  Level Moncton Center
Thu 01:49:21 PM 45.5667 -52.5000 252° West 440 506 35,000  Level Gander Center
Thu 01:50:21 PM 45.5500 -52.6500 261° West 440 506 35,000  Level Gander Center
Thu 01:51:21 PM 45.5333 -52.8500 263° West 440 506 35,000  Level Gander Center
Thu 01:52:21 PM 45.5167 -52.9833 260° West 440 506 35,000  Level Gander Center
Thu 01:53:21 PM 45.4833 -53.1833 257° West 440 506 35,000  Level Gander Center
Thu 01:54:21 PM 45.4500 -53.3500 254° West 440 506 35,000  Level Gander Center
Thu 01:55:21 PM 45.4333 -53.5333 263° West 440 506 35,000  Level Gander Center
Thu 01:56:21 PM 45.4167 -53.7000 262° West 440 506 35,000  Level Gander Center
Thu 01:57:21 PM 45.3833 -53.8500 252° West 440 506 35,000  Level Gander Center
Thu 01:58:21 PM 45.3667 -54.0333 263° West 440 506 35,000  Level Gander Center
Thu 01:59:21 PM 45.3333 -54.1833 253° West 440 506 35,000  Level Gander Center
Thu 01:59:54 PM 45.3167 -54.2833 257° West 430 495 35,000  Level Gander Center
Thu 02:00:27 PM 45.3167 -54.4000 270° West 440 506 35,000  Level Moncton Center
Thu 02:01:27 PM 45.2833 -54.5333 250° West 430 495 35,000  Level Moncton Center
Thu 02:02:27 PM 45.2500 -54.7167 256° West 440 506 35,000  Level Moncton Center
Thu 02:03:21 PM 45.2333 -54.8667 261° West 430 495 35,000  Level Gander Center
Thu 02:04:21 PM 45.2167 -55.0333 262° West 430 495 35,000  Level Gander Center
Thu 02:05:21 PM 45.1833 -55.2000 254° West 430 495 35,000  Level Gander Center
Thu 02:06:21 PM 45.1667 -55.3500 261° West 420 483 35,000  Level Gander Center
Thu 02:07:28 PM 45.1167 -55.5500 251° West 430 495 35,000  Level Moncton Center
Thu 02:08:21 PM 45.1000 -55.6833 260° West 430 495 35,000  Level Gander Center
Thu 02:09:21 PM 45.0833 -55.8667 263° West 430 495 35,000  Level Gander Center
Thu 02:10:21 PM 45.0500 -56.0167 253° West 430 495 35,000  Level Gander Center
Thu 02:11:21 PM 45.0167 -56.1833 254° West 440 506 35,000  Level Gander Center
Thu 02:12:21 PM 45.0000 -56.3500 262° West 440 506 35,000  Level Gander Center
Thu 02:13:21 PM 44.9500 -56.5167 247° West 440 506 35,000  Level Gander Center
Thu 02:14:21 PM 44.9333 -56.7167 263° West 450 518 35,000  Level Gander Center
Thu 02:15:21 PM 44.9000 -56.8500 251° West 450 518 35,000  Level Gander Center
Thu 02:16:21 PM 44.8833 -57.0167 262° West 450 518 35,000  Level Gander Center
Thu 02:17:21 PM 44.8500 -57.2167 257° West 460 529 35,000  Level Gander Center
Thu 02:18:21 PM 44.8167 -57.3833 254° West 460 529 35,000  Level Gander Center
Thu 02:19:21 PM 44.7833 -57.5667 256° West 470 541 35,000  Level Gander Center
Thu 02:20:21 PM 44.7500 -57.7333 254° West 470 541 35,000  Level Gander Center
Thu 02:21:21 PM 44.7167 -57.9333 257° West 470 541 35,000  Level Gander Center
Thu 02:22:21 PM 44.6833 -58.1000 254° West 470 541 35,000  Level Gander Center
Thu 02:23:21 PM 44.6500 -58.2833 256° West 470 541 35,000  Level Gander Center
Thu 02:24:21 PM 44.6167 -58.4500 254° West 470 541 35,000  Level Gander Center
Thu 02:25:21 PM 44.5833 -58.6333 256° West 470 541 35,000  Level Gander Center
Thu 02:26:21 PM 44.5500 -58.8000 254° West 460 529 35,000  Level Gander Center
Thu 02:27:21 PM 44.5167 -58.9667 254° West 460 529 35,000  Level Gander Center
Thu 02:28:21 PM 44.4833 -59.1500 256° West 450 518 35,000  Level Gander Center
Thu 02:29:21 PM 44.4667 -59.3167 262° West 460 529 35,000  Level Gander Center
Thu 02:30:21 PM 44.4167 -59.4833 247° West 450 518 35,000  Level Gander Center
Thu 02:31:21 PM 44.3833 -59.6500 254° West 450 518 35,000  Level Gander Center
Thu 02:32:21 PM 44.3500 -59.8167 254° West 450 518 35,000  Level Gander Center
Thu 02:33:21 PM 44.3167 -59.9833 254° West 450 518 35,000  Level Gander Center
Thu 02:34:21 PM 44.2833 -60.1500 254° West 440 506 35,000  Level Gander Center
Thu 02:35:28 PM 44.2500 -60.3333 256° West 440 506 35,000  Level Moncton Center
Thu 02:36:21 PM 44.2000 -60.4667 242° Southwest 440 506 35,000  Level Gander Center
Thu 02:37:21 PM 44.1833 -60.6500 263° West 440 506 35,000  Level Gander Center
Thu 02:38:21 PM 44.1500 -60.8167 254° West 440 506 35,000  Level Gander Center
Thu 02:39:21 PM 44.1167 -60.9833 254° West 440 506 35,000  Level Gander Center
Thu 02:40:21 PM 44.0833 -61.1500 254° West 440 506 35,000  Level Gander Center
Thu 02:41:21 PM 44.0500 -61.2833 251° West 440 506 35,000  Level Gander Center
Thu 02:42:21 PM 44.0000 -61.4667 249° West 440 506 35,000  Level Gander Center
Thu 02:43:21 PM 43.9667 -61.6333 255° West 440 506 35,000  Level Gander Center
Thu 02:44:21 PM 43.9333 -61.7833 253° West 440 506 35,000  Level Gander Center
Thu 02:45:21 PM 43.9000 -61.9500 255° West 440 506 35,000  Level Gander Center
Thu 02:46:21 PM 43.8500 -62.1167 247° West 440 506 35,000  Level Gander Center
Thu 02:47:21 PM 43.8167 -62.2667 253° West 440 506 35,000  Level Gander Center
Thu 02:48:21 PM 43.7833 -62.4333 255° West 440 506 35,000  Level Gander Center
Thu 02:49:21 PM 43.7500 -62.6000 255° West 440 506 35,000  Level Gander Center
Thu 02:50:28 PM 43.7000 -62.7833 249° West 430 495 35,000  Level Moncton Center
Thu 02:51:28 PM 43.6667 -62.9500 255° West 430 495 35,000  Level Moncton Center
Thu 02:52:28 PM 43.6333 -63.0833 251° West 430 495 35,000  Level Moncton Center
Thu 02:53:28 PM 43.6000 -63.2500 255° West 430 495 35,000  Level Moncton Center
Thu 02:54:28 PM 43.5500 -63.4000 245° Southwest 430 495 35,000  Level Moncton Center
Thu 02:55:28 PM 43.5167 -63.5667 255° West 430 495 35,000  Level Moncton Center
Thu 02:56:28 PM 43.4833 -63.7000 251° West 430 495 35,000  Level Moncton Center
Thu 02:57:28 PM 43.4333 -63.8667 248° West 420 483 35,000  Level Moncton Center
Thu 02:58:28 PM 43.4000 -64.0333 255° West 420 483 35,000  Level Moncton Center
Thu 02:59:28 PM 43.3667 -64.1833 253° West 430 495 35,000  Level Moncton Center
Thu 03:00:28 PM 43.3333 -64.3333 253° West 430 495 35,000  Level Moncton Center
Thu 03:01:28 PM 43.2833 -64.4833 245° Southwest 430 495 35,000  Level Moncton Center
Thu 03:02:28 PM 43.2500 -64.6500 255° West 430 495 35,000  Level Moncton Center
Thu 03:03:28 PM 43.2000 -64.8167 248° West 430 495 35,000  Level Moncton Center
Thu 03:04:28 PM 43.1667 -64.9500 251° West 430 495 35,000  Level Moncton Center
Thu 03:05:28 PM 43.1333 -65.1000 253° West 430 495 35,000  Level Moncton Center
Thu 03:06:28 PM 43.0833 -65.2667 248° West 430 495 35,000  Level Moncton Center
Thu 03:07:28 PM 43.0500 -65.4333 255° West 430 495 35,000  Level Moncton Center
Thu 03:08:28 PM 43.0167 -65.5833 253° West 430 495 35,000  Level Moncton Center
Thu 03:09:28 PM 42.9667 -65.7167 243° Southwest 430 495 35,000  Level Moncton Center
Thu 03:10:28 PM 42.9167 -65.8833 248° West 430 495 35,000  Level Moncton Center
Thu 03:11:28 PM 42.8833 -66.0333 253° West 420 483 35,000  Level Moncton Center
Thu 03:12:28 PM 42.8333 -66.2000 248° West 420 483 35,000  Level Moncton Center
Thu 03:13:28 PM 42.8000 -66.3333 251° West 430 495 35,000  Level Moncton Center
Thu 03:14:28 PM 42.7667 -66.4667 251° West 420 483 35,000  Level Moncton Center
Thu 03:15:28 PM 42.7167 -66.6167 246° West 420 483 35,000  Level Moncton Center
Thu 03:16:28 PM 42.6667 -66.7833 248° West 420 483 35,000  Level Moncton Center
Thu 03:17:28 PM 42.6333 -66.9333 253° West 420 483 35,000  Level Moncton Center
Thu 03:17:58 PM 42.6347 -66.9975 272° West 423 487 35,000  Level Boston Center
Thu 03:18:28 PM 42.6000 -67.0667 236° Southwest 420 483 35,000  Level Moncton Center
Thu 03:18:58 PM 42.6086 -67.1522 278° West 423 487 35,000  Level Boston Center
Thu 03:20:09 PM 42.5844 -67.3067 258° West 423 487 35,000  Level Boston Center
Thu 03:21:10 PM 42.5533 -67.4956 257° West 423 487 35,000  Level Boston Center
Thu 03:22:10 PM 42.5286 -67.6497 258° West 423 487 35,000  Level Boston Center
Thu 03:23:10 PM 42.5058 -67.8008 258° West 423 487 35,000  Level Boston Center
Thu 03:24:10 PM 42.4747 -67.9664 256° West 423 487 35,000  Level Boston Center
Thu 03:25:10 PM 42.4517 -68.1231 259° West 417 480 35,000  Level Boston Center
Thu 03:26:21 PM 42.4261 -68.2767 257° West 417 480 35,000  Level Boston Center
Thu 03:27:21 PM 42.3953 -68.4589 257° West 417 480 35,000  Level Boston Center
Thu 03:28:22 PM 42.3714 -68.6150 258° West 422 486 35,000  Level Boston Center
Thu 03:29:33 PM 42.3431 -68.7656 256° West 422 486 35,000  Level Boston Center
Thu 03:30:33 PM 42.3114 -68.9500 257° West 422 486 35,000  Level Boston Center
Thu 03:31:33 PM 42.2900 -69.0747 257° West 422 486 35,000  Level Boston Center
Thu 03:32:33 PM 42.2594 -69.2419 256° West 427 491 35,000 -50 Level Boston Center
Thu 03:33:33 PM 42.2381 -69.3692 257° West 421 484 34,900  Descending Boston Center
Thu 03:34:34 PM 42.2072 -69.5531 257° West 421 484 35,000 50 Climbing Boston Center
Thu 03:35:33 PM 42.1758 -69.7086 255° West 421 484 35,000  Level Boston Center
Thu 03:36:33 PM 42.1483 -69.8750 257° West 421 484 35,000  Level Boston Center
Thu 03:37:34 PM 42.1281 -69.9989 258° West 421 484 35,000  Level Boston Center
Thu 03:38:34 PM 42.0922 -70.1683 254° West 436 502 35,000  Level Boston Center
Thu 03:39:33 PM 42.0617 -70.3231 255° West 431 496 35,000  Level Boston Center
Thu 03:40:33 PM 42.0311 -70.4725 255° West 431 496 35,000  Level Boston Center
Thu 03:41:33 PM 41.9856 -70.6161 247° West 426 490 35,000  Level Boston Center
Thu 03:42:33 PM 41.9397 -70.7572 246° West 421 484 35,000  Level Boston Center
Thu 03:43:33 PM 41.8961 -70.9061 249° West 421 484 35,000  Level Boston Center
Thu 03:44:34 PM 41.8519 -71.0494 248° West 421 484 35,000  Level Boston Center
Thu 03:45:33 PM 41.8058 -71.1925 247° West 421 484 35,000  Level Boston Center
Thu 03:46:34 PM 41.7447 -71.3244 238° Southwest 421 484 35,000  Level Boston Center
Thu 03:47:34 PM 41.6644 -71.4314 225° Southwest 414 476 35,000 -756 Level Boston Center
Thu 03:48:33 PM 41.5861 -71.5381 226° Southwest 414 476 33,500 -1,664 Descending Boston Center
Thu 03:49:33 PM 41.5117 -71.6250 221° Southwest 409 471 31,700 -2,281 Descending Boston Center
Thu 03:50:34 PM 41.4208 -71.7453 225° Southwest 394 453 28,900 -2,750 Descending Boston Center
Thu 03:51:33 PM 41.3483 -71.8344 223° Southwest 382 440 26,200 -2,420 Descending Boston Center
Thu 03:52:33 PM 41.2781 -71.9236 224° Southwest 365 420 24,100 -1,650 Descending Boston Center
Thu 03:53:33 PM 41.2011 -71.9878 212° Southwest 351 404 22,900 -1,450 Descending Boston Center
Thu 03:54:33 PM 41.1181 -72.0350 203° Southwest 333 383 21,200 -1,438 Descending Boston Center
Thu 03:55:34 PM 41.0661 -72.1289 234° Southwest 316 364 20,000 -700 Descending Boston Center
Thu 03:56:33 PM 41.0644 -72.2556 269° West 304 350 19,800 -655 Descending Boston Center
Thu 03:57:33 PM 41.0644 -72.3822 270° West 332 382 18,700 -1,240 Descending Boston Center
Thu 03:58:34 PM 41.0542 -72.5033 264° West 332 382 17,300 -1,636 Descending Boston Center
Thu 03:59:34 PM 41.0122 -72.6078 242° Southwest 327 376 15,400 -1,750 Descending Boston Center
Thu 04:00:34 PM 40.9706 -72.7094 242° Southwest 315 362 13,800 -1,678 Descending Boston Center
Thu 04:01:32 PM 40.9333 -72.7833 236° Southwest 285 328 12,100 -1,017 Descending New York TRACON
Thu 04:02:32 PM 40.8667 -72.8500 217° Southwest 286 329 11,800 -942 Descending New York TRACON
Thu 04:03:33 PM 40.8000 -72.9167 217° Southwest 285 328 10,200 -1,488 Descending New York TRACON
Thu 04:04:33 PM 40.7500 -73.0000 232° Southwest 288 331 8,800 -1,381 Descending New York TRACON
Thu 04:05:39 PM 40.7333 -73.1167 259° West 282 325 7,300 -900 Descending New York TRACON
Thu 04:06:33 PM 40.7167 -73.1833 252° West 262 302 7,000 -150 Descending New York TRACON
Thu 04:07:39 PM 40.7000 -73.2833 258° West 236 272 7,000  Level New York TRACON
Thu 04:08:39 PM 40.6833 -73.3667 255° West 237 273 7,000  Level New York TRACON
Thu 04:09:33 PM 40.6333 -73.4167 217° Southwest 236 272 7,000  Level New York TRACON
Thu 04:10:39 PM 40.5833 -73.4833 225° Southwest 237 273 7,000 -500 Level New York TRACON
Thu 04:11:33 PM 40.5333 -73.5167 207° Southwest 235 270 6,000 -1,140 Descending New York TRACON
Thu 04:12:40 PM 40.4667 -73.5667 210° Southwest 240 276 4,700 -1,087 Descending New York TRACON
Thu 04:13:40 PM 40.4333 -73.6333 237° Southwest 232 267 3,700 -1,104 Descending New York TRACON
Thu 04:14:45 PM 40.4000 -73.7167 242° Southwest 231 266 2,400 -850 Descending New York TRACON
Thu 04:15:40 PM 40.3833 -73.7833 252° West 232 267 2,000 -209 Descending New York TRACON
Thu 04:16:40 PM 40.3833 -73.8500 270° West 201 231 2,000  Level New York TRACON
Thu 04:17:40 PM 40.4000 -73.9167 288° West 187 215 2,000  Level New York TRACON
Thu 04:18:40 PM 40.4333 -73.9167 360° North 170 196 2,000  Level New York TRACON
Thu 04:20:00 PM 40.5731 -73.8235 27° Northeast  Level Estimated

Login

Don't have an account? Register now (free) for customized features, flight alerts, and more!